createdAt,value
2023-02-20T00:00:21.597Z,99.90
2023-02-20T00:01:28.871Z,99.90
2023-02-20T00:02:32.178Z,99.90
2023-02-20T00:03:35.423Z,99.90
2023-02-20T00:04:37.658Z,99.90
2023-02-20T00:05:40.829Z,99.90
2023-02-20T00:06:43.404Z,99.90
2023-02-20T00:07:48.643Z,99.90
2023-02-20T00:08:51.127Z,99.90
2023-02-20T00:09:54.232Z,99.90
2023-02-20T00:10:56.591Z,99.90
2023-02-20T00:11:59.747Z,99.90
2023-02-20T00:13:02.132Z,99.90
2023-02-20T00:14:05.891Z,99.90
2023-02-20T00:15:09.203Z,99.90
2023-02-20T00:16:12.592Z,99.90
2023-02-20T00:17:15.718Z,99.90
2023-02-20T00:18:20.252Z,99.90
2023-02-20T00:19:22.501Z,99.90
2023-02-20T00:20:27.191Z,99.90
2023-02-20T00:21:31.206Z,99.90
2023-02-20T00:22:33.515Z,99.90
2023-02-20T00:23:38.220Z,99.90
2023-02-20T00:24:40.346Z,99.90
2023-02-20T00:25:43.755Z,99.90
2023-02-20T00:26:50.316Z,99.90
2023-02-20T00:27:53.495Z,99.90
2023-02-20T00:28:55.680Z,99.90
2023-02-20T00:29:58.960Z,99.90
2023-02-20T00:31:01.222Z,99.90
2023-02-20T00:32:04.730Z,99.90
2023-02-20T00:33:07.756Z,99.90
2023-02-20T00:34:13.516Z,99.90
2023-02-20T00:35:16.253Z,99.90
2023-02-20T00:36:20.544Z,99.90
2023-02-20T00:37:22.623Z,99.90
2023-02-20T00:38:25.918Z,99.90
2023-02-20T00:39:32.591Z,99.90
2023-02-20T00:40:35.703Z,99.90
2023-02-20T00:41:37.844Z,99.90
2023-02-20T00:42:40.951Z,99.90
2023-02-20T00:43:43.289Z,99.90
2023-02-20T00:44:46.294Z,99.90
2023-02-20T00:45:48.487Z,99.90
2023-02-20T00:46:51.548Z,99.90
2023-02-20T00:47:53.936Z,99.90
2023-02-20T00:48:57.159Z,99.90
2023-02-20T00:50:18.797Z,99.90
2023-02-20T00:51:22.219Z,99.90
2023-02-20T00:52:24.854Z,99.90
2023-02-20T00:53:28.060Z,99.90
2023-02-20T00:54:32.023Z,99.90
2023-02-20T00:55:35.103Z,99.90
2023-02-20T00:56:37.241Z,99.90
2023-02-20T00:57:41.290Z,99.90
2023-02-20T00:58:43.442Z,99.90
2023-02-20T00:59:46.529Z,99.90
2023-02-20T01:00:48.625Z,99.90
2023-02-20T01:01:52.170Z,99.90
2023-02-20T01:02:56.021Z,99.90
2023-02-20T01:03:59.861Z,99.90
2023-02-20T01:05:02.209Z,99.90
2023-02-20T01:06:06.042Z,99.90
2023-02-20T01:07:08.132Z,99.90
2023-02-20T01:08:11.220Z,99.90
2023-02-20T01:09:13.688Z,99.90
2023-02-20T01:10:19.761Z,99.90
2023-02-20T01:11:22.364Z,99.90
2023-02-20T01:12:26.093Z,99.90
2023-02-20T01:13:28.354Z,99.90
2023-02-20T01:14:31.623Z,99.90
2023-02-20T01:15:36.582Z,99.90
2023-02-20T01:16:44.764Z,99.90
2023-02-20T01:17:47.356Z,99.90
2023-02-20T01:18:51.884Z,99.90
2023-02-20T01:19:55.858Z,99.90
2023-02-20T01:20:59.042Z,99.90
2023-02-20T01:22:01.097Z,99.90
2023-02-20T01:23:04.177Z,99.90
2023-02-20T01:24:06.692Z,99.90
2023-02-20T01:25:09.728Z,99.90
2023-02-20T01:26:14.546Z,99.90
2023-02-20T01:27:17.815Z,99.90
2023-02-20T01:28:19.862Z,99.90
2023-02-20T01:29:23.190Z,99.90
2023-02-20T01:30:26.592Z,99.90
2023-02-20T01:31:30.001Z,99.90
2023-02-20T01:32:32.775Z,99.90
2023-02-20T01:33:36.081Z,99.90
2023-02-20T01:34:38.554Z,99.90
2023-02-20T01:35:41.549Z,99.90
2023-02-20T01:36:47.843Z,99.90
2023-02-20T01:37:50.851Z,99.90
2023-02-20T01:38:53.159Z,99.90
2023-02-20T01:39:57.426Z,99.90
2023-02-20T01:40:59.478Z,99.90
2023-02-20T01:42:07.050Z,99.90
2023-02-20T01:43:11.413Z,99.90
2023-02-20T01:44:20.840Z,99.90
2023-02-20T01:45:34.135Z,99.90
2023-02-20T01:46:47.548Z,99.90
2023-02-20T01:47:51.810Z,99.90
2023-02-20T01:48:55.565Z,99.90
2023-02-20T01:50:03.330Z,99.90
2023-02-20T01:51:05.515Z,99.90
2023-02-20T01:52:15.155Z,99.90
2023-02-20T01:53:22.129Z,99.90
2023-02-20T01:54:27.010Z,99.90
2023-02-20T01:55:32.299Z,99.90
2023-02-20T01:56:35.552Z,99.90
2023-02-20T01:57:42.933Z,99.90
2023-02-20T01:58:49.993Z,99.90
2023-02-20T01:59:56.298Z,99.90
2023-02-20T02:01:00.705Z,99.90
2023-02-20T02:02:03.414Z,99.90
2023-02-20T02:03:08.451Z,99.90
2023-02-20T02:04:12.761Z,99.90
2023-02-20T02:05:16.918Z,99.90
2023-02-20T02:06:19.073Z,99.90
2023-02-20T02:07:22.259Z,99.90
2023-02-20T02:08:25.564Z,99.90
2023-02-20T02:09:37.992Z,99.90
2023-02-20T02:10:47.463Z,99.90
2023-02-20T02:11:51.418Z,99.90
2023-02-20T02:12:55.013Z,99.90
2023-02-20T02:13:57.975Z,99.90
2023-02-20T02:15:00.017Z,99.90
2023-02-20T02:16:14.997Z,99.90
2023-02-20T02:17:39.348Z,99.90
2023-02-20T02:18:52.883Z,99.90
2023-02-20T02:20:34.990Z,99.90
2023-02-20T02:22:26.759Z,99.90
2023-02-20T02:24:18.485Z,99.90
2023-02-20T02:25:34.192Z,99.90
2023-02-20T02:27:17.286Z,99.90
2023-02-20T02:28:45.128Z,99.90
2023-02-20T02:30:30.186Z,99.90
2023-02-20T02:32:09.894Z,99.90
2023-02-20T02:33:42.300Z,99.90
2023-02-20T02:35:11.314Z,99.90
2023-02-20T02:36:34.485Z,99.90
2023-02-20T02:37:48.420Z,99.90
2023-02-20T02:38:56.424Z,99.90
2023-02-20T02:40:04.345Z,99.90
2023-02-20T02:41:15.236Z,99.90
2023-02-20T02:42:25.336Z,99.90
2023-02-20T02:43:35.433Z,99.90
2023-02-20T02:44:46.088Z,99.90
2023-02-20T02:45:54.109Z,99.90
2023-02-20T02:47:02.458Z,99.90
2023-02-20T02:48:12.436Z,99.90
2023-02-20T02:49:21.966Z,99.90
2023-02-20T02:50:27.265Z,99.90
2023-02-20T02:51:35.913Z,99.90
2023-02-20T02:52:46.363Z,99.90
2023-02-20T02:54:10.615Z,99.90
2023-02-20T02:55:15.020Z,99.90
2023-02-20T02:56:24.008Z,99.90
2023-02-20T02:57:28.293Z,99.90
2023-02-20T02:58:31.262Z,99.90
2023-02-20T02:59:34.197Z,99.90
2023-02-20T03:00:41.881Z,99.90
2023-02-20T03:01:49.093Z,99.90
2023-02-20T03:02:58.179Z,99.90
2023-02-20T03:04:02.270Z,99.90
2023-02-20T03:05:09.532Z,99.90
2023-02-20T03:06:16.987Z,99.90
2023-02-20T03:07:24.533Z,99.90
2023-02-20T03:08:31.349Z,99.90
2023-02-20T03:09:38.704Z,99.90
2023-02-20T03:10:44.260Z,99.90
2023-02-20T03:11:49.149Z,99.90
2023-02-20T03:12:59.610Z,99.90
2023-02-20T03:14:26.303Z,99.90
2023-02-20T03:15:35.200Z,99.90
2023-02-20T03:16:53.420Z,99.90
2023-02-20T03:18:10.242Z,99.90
2023-02-20T03:19:14.774Z,99.90
2023-02-20T03:20:22.072Z,99.90
2023-02-20T03:21:26.905Z,99.90
2023-02-20T03:22:36.534Z,99.90
2023-02-20T03:23:42.789Z,99.90
2023-02-20T03:24:56.216Z,99.90
2023-02-20T03:26:10.858Z,99.90
2023-02-20T03:27:14.077Z,99.90
2023-02-20T03:28:19.145Z,99.90
2023-02-20T03:29:27.979Z,99.90
2023-02-20T03:30:36.910Z,99.90
2023-02-20T03:31:45.024Z,99.90
2023-02-20T03:33:06.903Z,99.90
2023-02-20T03:34:32.227Z,99.90
2023-02-20T03:35:57.153Z,99.90
2023-02-20T03:37:21.592Z,99.90
2023-02-20T03:38:43.598Z,99.90
2023-02-20T03:40:08.838Z,99.90
2023-02-20T03:41:34.260Z,99.90
2023-02-20T03:43:00.695Z,99.90
2023-02-20T03:44:10.831Z,99.90
2023-02-20T03:45:14.265Z,99.90
2023-02-20T03:46:23.317Z,99.90
2023-02-20T03:47:29.171Z,99.90
2023-02-20T03:48:37.889Z,99.90
2023-02-20T03:49:44.240Z,99.90
2023-02-20T03:51:08.072Z,99.90
2023-02-20T03:52:19.772Z,99.90
2023-02-20T03:53:25.047Z,99.90
2023-02-20T03:54:30.345Z,99.90
2023-02-20T03:55:32.940Z,99.90
2023-02-20T03:56:43.574Z,99.90
2023-02-20T03:57:52.341Z,99.90
2023-02-20T03:58:59.766Z,99.90
2023-02-20T04:00:06.170Z,99.90
2023-02-20T04:01:21.281Z,99.90
2023-02-20T04:02:30.564Z,99.90
2023-02-20T04:03:39.094Z,99.90
2023-02-20T04:04:47.489Z,99.90
2023-02-20T04:05:54.159Z,99.90
2023-02-20T04:07:09.290Z,99.90
2023-02-20T04:08:16.015Z,99.90
2023-02-20T04:09:25.299Z,99.90
2023-02-20T04:10:31.430Z,99.90
2023-02-20T04:11:39.106Z,99.90
2023-02-20T04:12:45.678Z,99.90
2023-02-20T04:13:51.650Z,99.90
2023-02-20T04:14:58.309Z,99.90
2023-02-20T04:16:03.324Z,99.90
2023-02-20T04:17:10.393Z,99.90
2023-02-20T04:18:18.213Z,99.90
2023-02-20T04:19:20.613Z,99.90
2023-02-20T04:20:24.966Z,99.90
2023-02-20T04:21:48.728Z,99.90
2023-02-20T04:22:53.824Z,99.90
2023-02-20T04:24:04.296Z,99.90
2023-02-20T04:25:15.068Z,99.90
2023-02-20T04:26:20.419Z,99.90
2023-02-20T04:27:25.269Z,99.90
2023-02-20T04:28:31.516Z,99.90
2023-02-20T04:29:38.186Z,99.90
2023-02-20T04:30:40.716Z,99.90
2023-02-20T04:31:43.910Z,99.90
2023-02-20T04:32:46.575Z,99.90
2023-02-20T04:33:49.716Z,99.90
2023-02-20T04:34:55.867Z,99.90
2023-02-20T04:35:59.392Z,99.90
2023-02-20T04:37:09.370Z,99.90
2023-02-20T04:38:12.724Z,99.90
2023-02-20T04:39:15.832Z,99.90
2023-02-20T04:40:21.523Z,99.90
2023-02-20T04:41:24.906Z,99.90
2023-02-20T04:42:26.940Z,99.90
2023-02-20T04:43:31.306Z,99.90
2023-02-20T04:44:34.418Z,99.90
2023-02-20T04:45:40.086Z,99.90
2023-02-20T04:46:42.819Z,99.90
2023-02-20T04:47:45.986Z,99.90
2023-02-20T04:48:48.177Z,99.90
2023-02-20T04:49:51.608Z,99.90
2023-02-20T04:50:57.120Z,99.90
2023-02-20T04:52:00.393Z,99.90
2023-02-20T04:53:02.724Z,99.90
2023-02-20T04:54:05.725Z,99.90
2023-02-20T04:55:07.986Z,99.90
2023-02-20T04:56:14.523Z,99.90
2023-02-20T04:57:16.859Z,99.90
2023-02-20T04:58:20.200Z,99.90
2023-02-20T04:59:41.416Z,99.90
2023-02-20T05:00:45.071Z,99.90
2023-02-20T05:01:51.850Z,99.90
2023-02-20T05:02:55.626Z,99.90
2023-02-20T05:03:57.728Z,99.90
2023-02-20T05:05:00.968Z,99.90
2023-02-20T05:06:03.065Z,99.90
2023-02-20T05:07:06.525Z,99.90
2023-02-20T05:08:08.969Z,99.90
2023-02-20T05:09:11.982Z,99.90
2023-02-20T05:10:15.600Z,99.90
2023-02-20T05:11:20.013Z,99.90
2023-02-20T05:12:22.028Z,99.90
2023-02-20T05:13:25.076Z,99.90
2023-02-20T05:14:27.112Z,99.90
2023-02-20T05:15:31.607Z,99.90
2023-02-20T05:16:34.093Z,99.90
2023-02-20T05:17:37.514Z,99.90
2023-02-20T05:18:40.245Z,99.90
2023-02-20T05:19:43.466Z,99.90
2023-02-20T05:21:03.908Z,99.90
2023-02-20T05:22:23.076Z,99.90
2023-02-20T05:23:26.270Z,99.90
2023-02-20T05:24:28.471Z,99.90
2023-02-20T05:25:31.643Z,99.90
2023-02-20T05:26:35.106Z,99.90
2023-02-20T05:27:38.228Z,99.90
2023-02-20T05:28:40.402Z,99.90
2023-02-20T05:29:47.517Z,99.90
2023-02-20T05:30:49.578Z,99.90
2023-02-20T05:31:52.720Z,99.90
2023-02-20T05:32:54.759Z,99.90
2023-02-20T05:33:58.004Z,99.90
2023-02-20T05:35:01.288Z,99.90
2023-02-20T05:36:03.661Z,99.90
2023-02-20T05:37:06.661Z,99.90
2023-02-20T05:38:08.661Z,99.90
2023-02-20T05:39:11.697Z,99.90
2023-02-20T05:40:13.728Z,99.90
2023-02-20T05:41:16.901Z,99.90
2023-02-20T05:42:21.538Z,99.90
2023-02-20T05:43:24.589Z,99.90
2023-02-20T05:44:27.649Z,99.90
2023-02-20T05:45:30.653Z,99.90
2023-02-20T05:46:32.858Z,99.90
2023-02-20T05:47:38.180Z,99.90
2023-02-20T05:48:40.229Z,99.90
2023-02-20T05:49:43.402Z,99.90
2023-02-20T05:50:45.672Z,99.90
2023-02-20T05:51:54.000Z,99.90
2023-02-20T05:52:57.041Z,99.90
2023-02-20T05:53:59.136Z,99.90
2023-02-20T05:55:02.254Z,99.90
2023-02-20T05:56:04.556Z,99.90
2023-02-20T05:57:08.464Z,99.90
2023-02-20T05:58:11.830Z,99.90
2023-02-20T05:59:18.101Z,99.90
2023-02-20T06:00:22.174Z,99.90
2023-02-20T06:01:26.585Z,99.90
2023-02-20T06:02:34.080Z,99.90
2023-02-20T06:03:38.090Z,99.90
2023-02-20T06:04:41.205Z,99.90
2023-02-20T06:05:43.826Z,99.90
2023-02-20T06:06:46.792Z,99.90
2023-02-20T06:07:48.787Z,99.90
2023-02-20T06:08:51.847Z,99.90
2023-02-20T06:09:53.928Z,99.90
2023-02-20T06:10:56.990Z,99.90
2023-02-20T06:11:59.146Z,99.90
2023-02-20T06:13:02.549Z,99.90
2023-02-20T06:14:06.963Z,99.90
2023-02-20T06:15:10.514Z,99.90
2023-02-20T06:16:13.298Z,99.90
2023-02-20T06:17:16.566Z,99.90
2023-02-20T06:18:19.277Z,99.90
2023-02-20T06:19:24.900Z,99.90
2023-02-20T06:20:27.027Z,99.90
2023-02-20T06:21:30.537Z,99.90
2023-02-20T06:22:32.536Z,99.90
2023-02-20T06:23:35.998Z,99.90
2023-02-20T06:24:39.213Z,99.90
2023-02-20T06:25:41.230Z,99.90
2023-02-20T06:26:44.646Z,99.90
2023-02-20T06:27:46.595Z,99.90
2023-02-20T06:28:50.534Z,99.90
2023-02-20T06:29:55.214Z,99.90
2023-02-20T06:30:57.189Z,99.90
2023-02-20T06:32:00.937Z,99.90
2023-02-20T06:33:03.047Z,99.90
2023-02-20T06:34:07.239Z,99.90
2023-02-20T06:35:09.473Z,99.90
2023-02-20T06:36:21.305Z,99.90
2023-02-20T06:37:23.325Z,99.90
2023-02-20T06:38:26.901Z,99.90
2023-02-20T06:39:29.345Z,99.90
2023-02-20T06:40:32.436Z,99.90
2023-02-20T06:41:34.638Z,99.90
2023-02-20T06:42:37.843Z,99.90
2023-02-20T06:43:40.300Z,99.90
2023-02-20T06:44:43.547Z,99.90
2023-02-20T06:45:47.663Z,99.90
2023-02-20T06:46:51.194Z,99.90
2023-02-20T06:47:53.417Z,99.90
2023-02-20T06:48:58.856Z,99.90
2023-02-20T06:50:00.908Z,99.90
2023-02-20T06:51:03.990Z,99.90
2023-02-20T06:52:06.676Z,99.90
2023-02-20T06:53:09.942Z,99.90
2023-02-20T06:54:12.981Z,99.90
2023-02-20T06:55:16.400Z,99.90
2023-02-20T06:56:21.364Z,99.90
2023-02-20T06:57:24.488Z,99.90
2023-02-20T06:58:26.574Z,99.90
2023-02-20T06:59:29.801Z,99.90
2023-02-20T07:00:32.039Z,99.90
2023-02-20T07:01:41.838Z,99.90
2023-02-20T07:02:44.097Z,99.90
2023-02-20T07:03:48.760Z,99.90
2023-02-20T07:04:52.468Z,99.90
2023-02-20T07:05:54.672Z,99.90
2023-02-20T07:06:57.911Z,99.90
2023-02-20T07:08:00.104Z,99.90
2023-02-20T07:09:03.392Z,99.90
2023-02-20T07:10:07.310Z,99.90
2023-02-20T07:11:09.717Z,99.90
2023-02-20T07:12:13.183Z,99.90
2023-02-20T07:13:15.230Z,99.90
2023-02-20T07:14:18.400Z,99.90
2023-02-20T07:15:20.537Z,99.90
2023-02-20T07:16:23.850Z,99.90
2023-02-20T07:17:27.629Z,99.90
2023-02-20T07:18:30.748Z,99.90
2023-02-20T07:19:32.716Z,99.90
2023-02-20T07:20:35.740Z,99.90
2023-02-20T07:21:37.883Z,99.90
2023-02-20T07:22:41.074Z,99.90
2023-02-20T07:23:44.626Z,99.90
2023-02-20T07:24:51.800Z,99.90
2023-02-20T07:25:54.908Z,99.90
2023-02-20T07:27:58.877Z,99.90
2023-02-20T07:29:01.615Z,99.90
2023-02-20T07:30:05.303Z,99.90
2023-02-20T07:31:07.303Z,99.90
2023-02-20T07:32:10.513Z,99.90
2023-02-20T07:33:14.104Z,99.90
2023-02-20T07:34:17.173Z,99.90
2023-02-20T07:35:19.214Z,99.90
2023-02-20T07:36:22.665Z,99.90
2023-02-20T07:37:24.932Z,99.90
2023-02-20T07:38:28.152Z,99.90
2023-02-20T07:39:31.694Z,99.90
2023-02-20T07:40:33.820Z,99.90
2023-02-20T07:41:37.020Z,99.90
2023-02-20T07:42:40.614Z,99.90
2023-02-20T07:43:53.210Z,99.90
2023-02-20T07:44:55.271Z,99.90
2023-02-20T07:45:58.792Z,99.90
2023-02-20T07:47:00.865Z,99.90
2023-02-20T07:48:03.952Z,99.90
2023-02-20T07:49:07.408Z,99.90
2023-02-20T07:50:10.875Z,99.90
2023-02-20T07:51:13.150Z,99.90
2023-02-20T07:52:16.328Z,99.90
2023-02-20T07:53:19.788Z,99.90
2023-02-20T07:54:23.003Z,99.90
2023-02-20T07:55:25.859Z,99.90
2023-02-20T07:56:31.986Z,99.90
2023-02-20T07:57:36.650Z,99.90
2023-02-20T07:58:40.293Z,99.90
2023-02-20T07:59:42.781Z,99.90
2023-02-20T08:00:46.688Z,99.90
2023-02-20T08:01:50.944Z,99.90
2023-02-20T08:02:54.822Z,99.90
2023-02-20T08:04:10.113Z,99.90
2023-02-20T08:05:16.551Z,99.90
2023-02-20T08:06:22.648Z,99.90
2023-02-20T08:07:24.964Z,99.90
2023-02-20T08:08:28.081Z,99.90
2023-02-20T08:09:31.328Z,99.90
2023-02-20T08:10:34.062Z,99.90
2023-02-20T08:11:38.322Z,99.90
2023-02-20T08:12:40.426Z,99.90
2023-02-20T08:13:44.363Z,99.90
2023-02-20T08:14:46.990Z,99.90
2023-02-20T08:15:50.240Z,99.90
2023-02-20T08:16:52.520Z,99.90
2023-02-20T08:17:55.872Z,99.90
2023-02-20T08:18:57.994Z,99.90
2023-02-20T08:20:01.351Z,99.90
2023-02-20T08:21:05.992Z,99.90
2023-02-20T08:22:08.610Z,99.90
2023-02-20T08:23:18.597Z,99.90
2023-02-20T08:24:21.798Z,99.90
2023-02-20T08:25:23.904Z,99.90
2023-02-20T08:26:26.988Z,99.90
2023-02-20T08:27:29.447Z,99.90
2023-02-20T08:28:32.687Z,99.90
2023-02-20T08:29:34.931Z,99.90
2023-02-20T08:30:38.283Z,99.90
2023-02-20T08:31:40.607Z,99.90
2023-02-20T08:32:43.787Z,99.90
2023-02-20T08:33:46.955Z,99.90
2023-02-20T08:34:50.341Z,99.90
2023-02-20T08:35:54.260Z,99.90
2023-02-20T08:36:59.213Z,99.90
2023-02-20T08:38:03.564Z,99.90
2023-02-20T08:39:07.086Z,99.90
2023-02-20T08:40:10.431Z,99.90
2023-02-20T08:41:14.867Z,99.90
2023-02-20T08:42:17.292Z,99.90
2023-02-20T08:43:20.708Z,99.90
2023-02-20T08:44:24.107Z,99.90
2023-02-20T08:45:26.290Z,99.90
2023-02-20T08:46:29.803Z,99.90
2023-02-20T08:47:32.257Z,99.90
2023-02-20T08:48:36.885Z,99.90
2023-02-20T08:49:38.969Z,99.90
2023-02-20T08:50:42.465Z,99.90
2023-02-20T08:51:46.502Z,99.90
2023-02-20T08:52:50.076Z,99.90
2023-02-20T08:53:53.393Z,99.90
2023-02-20T08:54:55.502Z,99.90
2023-02-20T08:55:58.699Z,99.90
2023-02-20T08:57:01.726Z,99.90
2023-02-20T08:58:04.849Z,99.90
2023-02-20T08:59:07.914Z,99.90
2023-02-20T09:00:11.253Z,99.90
2023-02-20T09:01:14.417Z,99.90
2023-02-20T09:02:17.854Z,99.90
2023-02-20T09:03:21.257Z,99.90
2023-02-20T09:04:24.479Z,99.90
2023-02-20T09:05:26.967Z,99.90
2023-02-20T09:06:30.614Z,99.90
2023-02-20T09:07:32.689Z,99.90
2023-02-20T09:08:37.432Z,99.90
2023-02-20T09:09:39.782Z,99.90
2023-02-20T09:10:43.138Z,99.90
2023-02-20T09:11:45.351Z,99.90
2023-02-20T09:12:49.081Z,99.90
2023-02-20T09:13:52.257Z,99.90
2023-02-20T09:14:57.349Z,99.90
2023-02-20T09:16:00.765Z,99.90
2023-02-20T09:17:05.444Z,99.90
2023-02-20T09:18:12.317Z,99.90
2023-02-20T09:19:15.434Z,99.90
2023-02-20T09:20:20.798Z,99.90
2023-02-20T09:21:23.088Z,99.90
2023-02-20T09:22:27.739Z,99.90
2023-02-20T09:23:30.411Z,99.90
2023-02-20T09:24:36.944Z,99.90
2023-02-20T09:25:43.286Z,99.90
2023-02-20T09:26:48.829Z,99.90
2023-02-20T09:27:58.785Z,99.90
2023-02-20T09:29:01.220Z,99.90
2023-02-20T09:30:05.865Z,99.90
2023-02-20T09:31:08.326Z,99.90
2023-02-20T09:32:12.004Z,99.90
2023-02-20T09:33:15.660Z,99.90
2023-02-20T09:34:17.996Z,99.90
2023-02-20T09:35:24.011Z,99.90
2023-02-20T09:36:29.510Z,99.90
2023-02-20T09:37:33.609Z,99.90
2023-02-20T09:38:37.030Z,99.90
2023-02-20T09:39:43.862Z,99.90
2023-02-20T09:40:50.835Z,99.90
2023-02-20T09:42:10.208Z,99.90
2023-02-20T09:43:25.323Z,99.90
2023-02-20T09:44:39.663Z,99.90
2023-02-20T09:45:49.348Z,99.90
2023-02-20T09:46:53.253Z,99.90
2023-02-20T09:48:10.897Z,99.90
2023-02-20T09:49:15.559Z,99.90
2023-02-20T09:50:30.980Z,99.90
2023-02-20T09:51:39.589Z,99.90
2023-02-20T09:52:45.984Z,99.90
2023-02-20T09:53:59.220Z,99.90
2023-02-20T09:55:13.931Z,99.90
2023-02-20T09:56:21.826Z,99.90
2023-02-20T09:57:29.442Z,99.90
2023-02-20T09:58:46.568Z,99.90
2023-02-20T09:59:57.068Z,99.90
2023-02-20T10:01:06.848Z,99.90
2023-02-20T10:02:23.651Z,99.90
2023-02-20T10:03:40.837Z,99.90
2023-02-20T10:05:00.910Z,99.90
2023-02-20T10:06:17.869Z,99.90
2023-02-20T10:07:33.911Z,99.90
2023-02-20T10:08:47.821Z,99.90
2023-02-20T10:10:02.483Z,99.90
2023-02-20T10:11:20.028Z,99.90
2023-02-20T10:12:34.663Z,99.90
2023-02-20T10:13:54.234Z,99.90
2023-02-20T10:15:20.984Z,99.90
2023-02-20T10:16:39.812Z,99.90
2023-02-20T10:17:55.969Z,99.90
2023-02-20T10:19:18.433Z,99.90
2023-02-20T10:20:28.650Z,99.90
2023-02-20T10:21:58.862Z,99.90
2023-02-20T10:23:19.352Z,99.90
2023-02-20T10:24:47.760Z,99.90
2023-02-20T10:25:56.341Z,99.90
2023-02-20T10:27:21.791Z,99.90
2023-02-20T10:28:26.874Z,99.90
2023-02-20T10:29:35.445Z,99.90
2023-02-20T10:30:44.405Z,99.90
2023-02-20T10:31:55.151Z,99.90
2023-02-20T10:33:04.111Z,99.90
2023-02-20T10:34:17.369Z,99.90
2023-02-20T10:35:26.570Z,99.90
2023-02-20T10:36:37.405Z,99.90
2023-02-20T10:37:48.338Z,99.90
2023-02-20T10:38:55.964Z,99.90
2023-02-20T10:40:12.041Z,99.90
2023-02-20T10:41:22.823Z,99.90
2023-02-20T10:42:34.950Z,99.90
2023-02-20T10:43:43.473Z,99.90
2023-02-20T10:44:53.181Z,99.90
2023-02-20T10:46:05.211Z,99.90
2023-02-20T10:47:22.178Z,99.90
2023-02-20T10:48:32.317Z,99.90
2023-02-20T10:49:48.179Z,99.90
2023-02-20T10:51:08.306Z,99.90
2023-02-20T10:52:32.634Z,99.90
2023-02-20T10:53:45.447Z,99.90
2023-02-20T10:54:59.321Z,99.90
2023-02-20T10:56:12.736Z,99.90
2023-02-20T10:57:27.152Z,99.90
2023-02-20T10:58:37.690Z,99.90
2023-02-20T10:59:51.580Z,99.90
2023-02-20T11:01:05.604Z,99.90
2023-02-20T11:02:17.529Z,99.90
2023-02-20T11:03:27.866Z,99.90
2023-02-20T11:04:37.113Z,99.90
2023-02-20T11:05:47.794Z,99.90
2023-02-20T11:07:02.089Z,99.50
2023-02-20T11:08:05.377Z,99.90
2023-02-20T11:09:10.934Z,99.90
2023-02-20T11:10:19.179Z,99.80
2023-02-20T11:11:26.518Z,99.90
2023-02-20T11:12:36.025Z,99.20
2023-02-20T11:13:45.814Z,99.20
2023-02-20T11:14:55.013Z,99.40
2023-02-20T11:15:59.908Z,99.40
2023-02-20T11:17:08.628Z,98.90
2023-02-20T11:18:21.398Z,98.60
2023-02-20T11:19:30.932Z,98.10
2023-02-20T11:20:49.740Z,98.00
2023-02-20T11:21:53.413Z,98.40
2023-02-20T11:23:01.567Z,98.00
2023-02-20T11:24:27.648Z,98.10
2023-02-20T11:25:34.934Z,98.20
2023-02-20T11:26:39.071Z,98.20
2023-02-20T11:27:43.428Z,97.30
2023-02-20T11:28:57.231Z,97.50
2023-02-20T11:30:04.696Z,97.30
2023-02-20T11:31:08.753Z,97.30
2023-02-20T11:32:34.741Z,97.00
2023-02-20T11:33:45.573Z,96.70
2023-02-20T11:34:49.009Z,96.80
2023-02-20T11:35:57.100Z,96.30
2023-02-20T11:37:07.734Z,96.60
2023-02-20T11:38:33.797Z,96.70
2023-02-20T11:39:37.924Z,96.40
2023-02-20T11:40:40.572Z,96.40
2023-02-20T11:41:44.076Z,96.70
2023-02-20T11:42:46.528Z,96.50
2023-02-20T11:44:07.981Z,96.50
2023-02-20T11:45:17.336Z,96.60
2023-02-20T11:46:23.256Z,96.40
2023-02-20T11:47:28.898Z,96.90
2023-02-20T11:48:31.589Z,96.40
2023-02-20T11:49:35.325Z,96.20
2023-02-20T11:50:42.686Z,95.90
2023-02-20T11:51:48.667Z,95.60
2023-02-20T11:53:10.346Z,95.70
2023-02-20T11:54:41.312Z,95.50
2023-02-20T11:56:08.231Z,95.40
2023-02-20T11:57:43.296Z,94.60
2023-02-20T11:59:35.911Z,94.70
2023-02-20T12:00:49.673Z,94.90
2023-02-20T12:02:00.806Z,94.50
2023-02-20T12:03:36.720Z,94.60
2023-02-20T12:04:49.888Z,94.70
2023-02-20T12:06:19.259Z,94.20
2023-02-20T12:07:38.836Z,93.90
2023-02-20T12:09:00.606Z,93.70
2023-02-20T12:10:26.334Z,94.20
2023-02-20T12:12:01.383Z,93.90
2023-02-20T12:13:24.015Z,93.80
2023-02-20T12:14:32.110Z,94.00
2023-02-20T12:15:36.944Z,93.20
2023-02-20T12:17:00.405Z,93.60
2023-02-20T12:18:36.601Z,93.40
2023-02-20T12:19:54.579Z,92.30
2023-02-20T12:21:05.758Z,92.70
2023-02-20T12:22:19.506Z,92.10
2023-02-20T12:23:32.937Z,92.40
2023-02-20T12:25:04.047Z,92.30
2023-02-20T12:26:29.200Z,92.00
2023-02-20T12:27:57.570Z,92.10
2023-02-20T12:29:07.537Z,91.70
2023-02-20T12:30:39.389Z,91.70
2023-02-20T12:31:56.194Z,91.50
2023-02-20T12:33:16.558Z,91.30
2023-02-20T12:34:39.162Z,90.80
2023-02-20T12:35:51.928Z,91.30
2023-02-20T12:37:04.489Z,91.10
2023-02-20T12:38:27.674Z,91.30
2023-02-20T12:39:40.290Z,91.40
2023-02-20T12:40:55.527Z,90.50
2023-02-20T12:42:14.687Z,90.70
2023-02-20T12:43:33.609Z,90.30
2023-02-20T12:44:55.771Z,90.40
2023-02-20T12:46:08.048Z,89.10
2023-02-20T12:47:24.316Z,88.90
2023-02-20T12:48:40.212Z,87.60
2023-02-20T12:49:55.644Z,87.60
2023-02-20T12:51:12.876Z,88.70
2023-02-20T12:52:32.924Z,87.70
2023-02-20T12:53:46.472Z,87.30
2023-02-20T12:54:55.663Z,88.00
2023-02-20T12:56:11.753Z,89.40
2023-02-20T12:57:19.190Z,89.30
2023-02-20T12:58:37.433Z,88.70
2023-02-20T12:59:48.994Z,88.50
2023-02-20T13:00:55.510Z,88.20
2023-02-20T13:02:05.323Z,88.20
2023-02-20T13:03:12.895Z,89.30
2023-02-20T13:04:25.538Z,90.00
2023-02-20T13:05:29.274Z,90.20
2023-02-20T13:06:38.092Z,90.20
2023-02-20T13:07:46.840Z,90.60
2023-02-20T13:09:00.294Z,90.40
2023-02-20T13:10:09.206Z,90.00
2023-02-20T13:11:18.280Z,90.20
2023-02-20T13:12:22.407Z,90.60
2023-02-20T13:13:28.513Z,90.90
2023-02-20T13:14:42.846Z,90.80
2023-02-20T13:15:52.845Z,91.00
2023-02-20T13:17:05.085Z,90.70
2023-02-20T13:18:17.966Z,90.20
2023-02-20T13:19:27.847Z,90.10
2023-02-20T13:20:35.454Z,90.30
2023-02-20T13:21:37.717Z,90.80
2023-02-20T13:22:41.206Z,90.30
2023-02-20T13:23:44.994Z,90.40
2023-02-20T13:24:47.288Z,90.30
2023-02-20T13:25:51.155Z,90.40
2023-02-20T13:26:56.096Z,91.00
2023-02-20T13:28:02.331Z,90.60
2023-02-20T13:29:14.415Z,90.30
2023-02-20T13:30:21.964Z,90.10
2023-02-20T13:31:27.069Z,90.10
2023-02-20T13:32:33.089Z,90.10
2023-02-20T13:33:37.803Z,90.20
2023-02-20T13:34:41.596Z,89.70
2023-02-20T13:35:52.559Z,90.00
2023-02-20T13:36:55.933Z,89.20
2023-02-20T13:38:11.221Z,88.70
2023-02-20T13:39:47.518Z,88.10
2023-02-20T13:41:07.678Z,88.20
2023-02-20T13:42:35.894Z,88.20
2023-02-20T13:43:40.387Z,88.70
2023-02-20T13:44:43.719Z,89.60
2023-02-20T13:45:48.512Z,90.00
2023-02-20T13:47:02.759Z,89.60
2023-02-20T13:48:44.737Z,89.60
2023-02-20T13:50:01.550Z,88.50
2023-02-20T13:51:33.897Z,88.90
2023-02-20T13:52:41.354Z,89.10
2023-02-20T13:53:45.889Z,88.70
2023-02-20T13:54:49.370Z,88.60
2023-02-20T13:55:51.850Z,88.50
2023-02-20T13:57:01.451Z,89.00
2023-02-20T13:58:11.137Z,88.50
2023-02-20T13:59:18.252Z,89.20
2023-02-20T14:00:30.836Z,89.30
2023-02-20T14:01:54.356Z,88.60
2023-02-20T14:02:58.050Z,88.40
2023-02-20T14:04:03.624Z,90.00
2023-02-20T14:05:09.298Z,87.70
2023-02-20T14:06:15.420Z,87.30
2023-02-20T14:07:31.222Z,87.70
2023-02-20T14:08:35.338Z,86.90
2023-02-20T14:09:38.847Z,86.90
2023-02-20T14:10:47.604Z,85.80
2023-02-20T14:11:52.503Z,85.50
2023-02-20T14:13:03.299Z,86.50
2023-02-20T14:14:09.648Z,85.60
2023-02-20T14:15:13.283Z,85.50
2023-02-20T14:16:30.171Z,85.80
2023-02-20T14:17:33.293Z,85.90
2023-02-20T14:18:37.648Z,86.00
2023-02-20T14:19:45.149Z,85.30
2023-02-20T14:20:49.594Z,85.10
2023-02-20T14:21:52.407Z,85.30
2023-02-20T14:23:09.711Z,84.40
2023-02-20T14:24:19.865Z,83.90
2023-02-20T14:25:27.679Z,84.10
2023-02-20T14:26:40.288Z,83.90
2023-02-20T14:27:45.631Z,84.80
2023-02-20T14:28:52.751Z,85.40
2023-02-20T14:30:06.281Z,85.80
2023-02-20T14:31:22.571Z,86.10
2023-02-20T14:32:25.483Z,86.40
2023-02-20T14:33:32.419Z,87.40
2023-02-20T14:34:45.711Z,88.20
2023-02-20T14:36:07.440Z,88.40